sensor_id;sensor_type;location;lat;lon;timestamp;pressure;altitude;pressure_sealevel;temperature
27815;BMP280;15190;52.122;9.956;2023-03-23T00:01:20;99343.00;;;14.15
27815;BMP280;15190;52.122;9.956;2023-03-23T00:03:49;99332.03;;;14.16
27815;BMP280;15190;52.122;9.956;2023-03-23T00:06:16;99336.19;;;14.13
27815;BMP280;15190;52.122;9.956;2023-03-23T00:08:44;99336.97;;;14.09
27815;BMP280;15190;52.122;9.956;2023-03-23T00:11:16;99331.06;;;14.10
27815;BMP280;15190;52.122;9.956;2023-03-23T00:13:45;99335.25;;;14.08
27815;BMP280;15190;52.122;9.956;2023-03-23T00:16:13;99333.53;;;14.06
27815;BMP280;15190;52.122;9.956;2023-03-23T00:18:48;99327.44;;;13.99
27815;BMP280;15190;52.122;9.956;2023-03-23T00:21:19;99318.25;;;14.04
27815;BMP280;15190;52.122;9.956;2023-03-23T00:23:45;99322.50;;;14.06
27815;BMP280;15190;52.122;9.956;2023-03-23T00:26:11;99317.44;;;14.06
27815;BMP280;15190;52.122;9.956;2023-03-23T00:28:38;99324.91;;;13.99
27815;BMP280;15190;52.122;9.956;2023-03-23T00:31:06;99314.72;;;13.96
27815;BMP280;15190;52.122;9.956;2023-03-23T00:33:34;99324.78;;;13.92
27815;BMP280;15190;52.122;9.956;2023-03-23T00:36:04;99322.16;;;13.86
27815;BMP280;15190;52.122;9.956;2023-03-23T00:38:31;99311.81;;;13.75
27815;BMP280;15190;52.122;9.956;2023-03-23T00:40:57;99300.75;;;13.73
27815;BMP280;15190;52.122;9.956;2023-03-23T00:43:24;99307.47;;;13.70
27815;BMP280;15190;52.122;9.956;2023-03-23T00:45:50;99307.44;;;13.68
27815;BMP280;15190;52.122;9.956;2023-03-23T00:48:25;99309.91;;;13.64
27815;BMP280;15190;52.122;9.956;2023-03-23T00:50:51;99302.31;;;13.66
27815;BMP280;15190;52.122;9.956;2023-03-23T00:53:18;99302.34;;;13.68
27815;BMP280;15190;52.122;9.956;2023-03-23T00:55:45;99308.28;;;13.69
27815;BMP280;15190;52.122;9.956;2023-03-23T00:58:12;99298.09;;;13.66
27815;BMP280;15190;52.122;9.956;2023-03-23T01:00:39;99318.44;;;13.67
27815;BMP280;15190;52.122;9.956;2023-03-23T01:03:06;99301.44;;;13.65
27815;BMP280;15190;52.122;9.956;2023-03-23T01:05:36;99291.25;;;13.62
27815;BMP280;15190;52.122;9.956;2023-03-23T01:08:04;99308.16;;;13.60
27815;BMP280;15190;52.122;9.956;2023-03-23T01:10:31;99309.03;;;13.62
27815;BMP280;15190;52.122;9.956;2023-03-23T01:13:05;99303.19;;;13.66
27815;BMP280;15190;52.122;9.956;2023-03-23T01:15:31;99295.50;;;13.63
27815;BMP280;15190;52.122;9.956;2023-03-23T01:17:57;99298.88;;;13.64
27815;BMP280;15190;52.122;9.956;2023-03-23T01:20:24;99296.44;;;13.68
27815;BMP280;15190;52.122;9.956;2023-03-23T01:22:52;99281.94;;;13.63
27815;BMP280;15190;52.122;9.956;2023-03-23T01:25:19;99281.09;;;13.62
27815;BMP280;15190;52.122;9.956;2023-03-23T01:27:45;99286.22;;;13.65
27815;BMP280;15190;52.122;9.956;2023-03-23T01:30:12;99287.03;;;13.63
27815;BMP280;15190;52.122;9.956;2023-03-23T01:32:38;99282.72;;;13.59
27815;BMP280;15190;52.122;9.956;2023-03-23T01:35:05;99270.91;;;13.61
27815;BMP280;15190;52.122;9.956;2023-03-23T01:37:31;99280.22;;;13.60
27815;BMP280;15190;52.122;9.956;2023-03-23T01:39:58;99282.72;;;13.59
27815;BMP280;15190;52.122;9.956;2023-03-23T01:42:31;99269.16;;;13.58
27815;BMP280;15190;52.122;9.956;2023-03-23T01:48:13;99272.44;;;13.51
27815;BMP280;15190;52.122;9.956;2023-03-23T01:53:13;99268.25;;;13.53
27815;BMP280;15190;52.122;9.956;2023-03-23T01:55:41;99268.22;;;13.52
27815;BMP280;15190;52.122;9.956;2023-03-23T01:58:09;99260.50;;;13.47
27815;BMP280;15190;52.122;9.956;2023-03-23T02:00:37;99268.13;;;13.49
27815;BMP280;15190;52.122;9.956;2023-03-23T02:03:08;99265.56;;;13.47
27815;BMP280;15190;52.122;9.956;2023-03-23T02:05:41;99274.94;;;13.50
27815;BMP280;15190;52.122;9.956;2023-03-23T02:08:09;99276.66;;;13.52
27815;BMP280;15190;52.122;9.956;2023-03-23T02:10:37;99274.13;;;13.52
27815;BMP280;15190;52.122;9.956;2023-03-23T02:13:05;99270.72;;;13.50
27815;BMP280;15190;52.122;9.956;2023-03-23T02:18:39;99285.00;;;13.45
27815;BMP280;15190;52.122;9.956;2023-03-23T02:21:25;99280.75;;;13.43
27815;BMP280;15190;52.122;9.956;2023-03-23T02:24:24;99261.28;;;13.43
27815;BMP280;15190;52.122;9.956;2023-03-23T02:27:01;99255.31;;;13.41
27815;BMP280;15190;52.122;9.956;2023-03-23T02:35:38;99266.34;;;13.43
27815;BMP280;15190;52.122;9.956;2023-03-23T02:38:13;99263.72;;;13.37
27815;BMP280;15190;52.122;9.956;2023-03-23T02:40:43;99273.03;;;13.37
27815;BMP280;15190;52.122;9.956;2023-03-23T02:43:15;99273.81;;;13.34
27815;BMP280;15190;52.122;9.956;2023-03-23T02:45:44;99271.25;;;13.34
27815;BMP280;15190;52.122;9.956;2023-03-23T02:48:13;99264.53;;;13.35
27815;BMP280;15190;52.122;9.956;2023-03-23T02:50:44;99262.84;;;13.35
27815;BMP280;15190;52.122;9.956;2023-03-23T02:53:13;99267.06;;;13.35
27815;BMP280;15190;52.122;9.956;2023-03-23T02:55:41;99262.88;;;13.37
27815;BMP280;15190;52.122;9.956;2023-03-23T02:58:09;99271.28;;;13.36
27815;BMP280;15190;52.122;9.956;2023-03-23T03:00:36;99256.13;;;13.39
27815;BMP280;15190;52.122;9.956;2023-03-23T03:03:03;99242.56;;;13.37
27815;BMP280;15190;52.122;9.956;2023-03-23T03:11:16;99237.13;;;13.18
27815;BMP280;15190;52.122;9.956;2023-03-23T03:16:31;99232.75;;;13.11
27815;BMP280;15190;52.122;9.956;2023-03-23T03:19:11;99241.19;;;13.08
27815;BMP280;15190;52.122;9.956;2023-03-23T03:21:41;99236.88;;;13.06
27815;BMP280;15190;52.122;9.956;2023-03-23T03:24:10;99235.25;;;13.09
27815;BMP280;15190;52.122;9.956;2023-03-23T03:26:41;99234.44;;;13.10
27815;BMP280;15190;52.122;9.956;2023-03-23T03:29:19;99228.38;;;13.04
27815;BMP280;15190;52.122;9.956;2023-03-23T03:31:47;99231.78;;;13.03
27815;BMP280;15190;52.122;9.956;2023-03-23T03:34:14;99225.81;;;13.01
27815;BMP280;15190;52.122;9.956;2023-03-23T03:36:45;99230.72;;;12.93
27815;BMP280;15190;52.122;9.956;2023-03-23T03:39:12;99233.25;;;12.92
27815;BMP280;15190;52.122;9.956;2023-03-23T03:41:40;99230.66;;;12.89
27815;BMP280;15190;52.122;9.956;2023-03-23T03:44:12;99231.50;;;12.89
27815;BMP280;15190;52.122;9.956;2023-03-23T03:46:38;99238.19;;;12.86
27815;BMP280;15190;52.122;9.956;2023-03-23T03:49:09;99244.13;;;12.87
27815;BMP280;15190;52.122;9.956;2023-03-23T03:51:38;99245.03;;;12.88
27815;BMP280;15190;52.122;9.956;2023-03-23T03:54:04;99245.78;;;12.86
27815;BMP280;15190;52.122;9.956;2023-03-23T03:56:30;99238.19;;;12.85
27815;BMP280;15190;52.122;9.956;2023-03-23T03:58:59;99237.41;;;12.88
27815;BMP280;15190;52.122;9.956;2023-03-23T04:01:25;99238.00;;;12.79
27815;BMP280;15190;52.122;9.956;2023-03-23T04:03:51;99222.75;;;12.77
27815;BMP280;15190;52.122;9.956;2023-03-23T04:06:17;99203.41;;;12.81
27815;BMP280;15190;52.122;9.956;2023-03-23T04:08:43;99207.53;;;12.76
27815;BMP280;15190;52.122;9.956;2023-03-23T04:11:12;99217.59;;;12.73
27815;BMP280;15190;52.122;9.956;2023-03-23T04:13:41;99205.84;;;12.76
27815;BMP280;15190;52.122;9.956;2023-03-23T04:16:07;99218.44;;;12.73
27815;BMP280;15190;52.122;9.956;2023-03-23T04:18:33;99211.69;;;12.72
27815;BMP280;15190;52.122;9.956;2023-03-23T04:21:00;99198.22;;;12.76
27815;BMP280;15190;52.122;9.956;2023-03-23T04:23:29;99199.00;;;12.74
27815;BMP280;15190;52.122;9.956;2023-03-23T04:25:56;99208.31;;;12.73
27815;BMP280;15190;52.122;9.956;2023-03-23T04:28:24;99216.75;;;12.72
27815;BMP280;15190;52.122;9.956;2023-03-23T04:30:51;99214.22;;;12.72
27815;BMP280;15190;52.122;9.956;2023-03-23T04:33:25;99211.63;;;12.69
27815;BMP280;15190;52.122;9.956;2023-03-23T04:35:55;99220.06;;;12.70
27815;BMP280;15190;52.122;9.956;2023-03-23T04:38:23;99213.28;;;12.67
27815;BMP280;15190;52.122;9.956;2023-03-23T04:40:52;99223.50;;;12.70
27815;BMP280;15190;52.122;9.956;2023-03-23T04:43:22;99217.56;;;12.71
27815;BMP280;15190;52.122;9.956;2023-03-23T04:45:57;99204.94;;;12.73
27815;BMP280;15190;52.122;9.956;2023-03-23T04:48:29;99186.31;;;12.72
27815;BMP280;15190;52.122;9.956;2023-03-23T04:50:57;99187.94;;;12.69
27815;BMP280;15190;52.122;9.956;2023-03-23T04:53:25;99170.16;;;12.67
27815;BMP280;15190;52.122;9.956;2023-03-23T04:55:51;99161.72;;;12.67
27815;BMP280;15190;52.122;9.956;2023-03-23T04:58:17;99159.03;;;12.59
27815;BMP280;15190;52.122;9.956;2023-03-23T05:00:43;99164.09;;;12.59
27815;BMP280;15190;52.122;9.956;2023-03-23T05:03:17;99163.22;;;12.59
27815;BMP280;15190;52.122;9.956;2023-03-23T05:05:44;99154.72;;;12.57
27815;BMP280;15190;52.122;9.956;2023-03-23T05:08:18;99159.78;;;12.55
27815;BMP280;15190;52.122;9.956;2023-03-23T05:10:56;99160.66;;;12.56
27815;BMP280;15190;52.122;9.956;2023-03-23T05:13:22;99155.53;;;12.54
27815;BMP280;15190;52.122;9.956;2023-03-23T05:15:48;99142.75;;;12.50
27815;BMP280;15190;52.122;9.956;2023-03-23T05:18:15;99154.69;;;12.54
27815;BMP280;15190;52.122;9.956;2023-03-23T05:20:41;99164.84;;;12.54
27815;BMP280;15190;52.122;9.956;2023-03-23T05:23:10;99180.94;;;12.57
27815;BMP280;15190;52.122;9.956;2023-03-23T05:25:36;99186.75;;;12.52
27815;BMP280;15190;52.122;9.956;2023-03-23T05:28:06;99182.53;;;12.52
27815;BMP280;15190;52.122;9.956;2023-03-23T05:30:33;99173.25;;;12.53
27815;BMP280;15190;52.122;9.956;2023-03-23T05:32:59;99179.28;;;12.58
27815;BMP280;15190;52.122;9.956;2023-03-23T05:35:25;99181.75;;;12.55
27815;BMP280;15190;52.122;9.956;2023-03-23T05:37:52;99174.16;;;12.56
27815;BMP280;15190;52.122;9.956;2023-03-23T05:40:19;99178.50;;;12.62
27815;BMP280;15190;52.122;9.956;2023-03-23T05:42:45;99189.47;;;12.61
27815;BMP280;15190;52.122;9.956;2023-03-23T05:45:12;99192.94;;;12.66
27815;BMP280;15190;52.122;9.956;2023-03-23T05:47:39;99192.91;;;12.64
27815;BMP280;15190;52.122;9.956;2023-03-23T05:50:07;99187.81;;;12.63
27815;BMP280;15190;52.122;9.956;2023-03-23T05:52:35;99194.53;;;12.61
27815;BMP280;15190;52.122;9.956;2023-03-23T05:55:02;99196.22;;;12.60
27815;BMP280;15190;52.122;9.956;2023-03-23T05:57:29;99198.69;;;12.57
27815;BMP280;15190;52.122;9.956;2023-03-23T05:59:56;99198.69;;;12.56
27815;BMP280;15190;52.122;9.956;2023-03-23T06:02:23;99200.34;;;12.55
27815;BMP280;15190;52.122;9.956;2023-03-23T06:04:50;99209.56;;;12.52
27815;BMP280;15190;52.122;9.956;2023-03-23T06:07:25;99193.44;;;12.47
27815;BMP280;15190;52.122;9.956;2023-03-23T06:09:52;99200.19;;;12.48
27815;BMP280;15190;52.122;9.956;2023-03-23T06:12:18;99195.16;;;12.49
27815;BMP280;15190;52.122;9.956;2023-03-23T06:14:46;99186.69;;;12.49
27815;BMP280;15190;52.122;9.956;2023-03-23T06:17:16;99184.16;;;12.49
27815;BMP280;15190;52.122;9.956;2023-03-23T06:19:45;99186.78;;;12.53
27815;BMP280;15190;52.122;9.956;2023-03-23T06:22:12;99188.47;;;12.53
27815;BMP280;15190;52.122;9.956;2023-03-23T06:24:39;99185.13;;;12.54
27815;BMP280;15190;52.122;9.956;2023-03-23T06:27:04;99187.69;;;12.57
27815;BMP280;15190;52.122;9.956;2023-03-23T06:29:30;99191.84;;;12.53
27815;BMP280;15190;52.122;9.956;2023-03-23T06:31:59;99185.97;;;12.54
27815;BMP280;15190;52.122;9.956;2023-03-23T06:34:27;99192.47;;;12.42
27815;BMP280;15190;52.122;9.956;2023-03-23T06:36:53;99189.19;;;12.48
27815;BMP280;15190;52.122;9.956;2023-03-23T06:39:19;99188.34;;;12.47
27815;BMP280;15190;52.122;9.956;2023-03-23T06:41:45;99187.47;;;12.47
27815;BMP280;15190;52.122;9.956;2023-03-23T06:44:11;99194.25;;;12.48
27815;BMP280;15190;52.122;9.956;2023-03-23T06:46:39;99196.06;;;12.53
27815;BMP280;15190;52.122;9.956;2023-03-23T06:49:06;99184.13;;;12.48
27815;BMP280;15190;52.122;9.956;2023-03-23T06:51:32;99191.66;;;12.45
27815;BMP280;15190;52.122;9.956;2023-03-23T06:53:58;99203.56;;;12.48
27815;BMP280;15190;52.122;9.956;2023-03-23T06:56:25;99200.19;;;12.48
27815;BMP280;15190;52.122;9.956;2023-03-23T06:58:51;99208.78;;;12.54
27815;BMP280;15190;52.122;9.956;2023-03-23T07:01:18;99217.31;;;12.58
27815;BMP280;15190;52.122;9.956;2023-03-23T07:03:44;99221.53;;;12.59
27815;BMP280;15190;52.122;9.956;2023-03-23T07:06:10;99223.38;;;12.66
27815;BMP280;15190;52.122;9.956;2023-03-23T07:08:36;99223.41;;;12.67
27815;BMP280;15190;52.122;9.956;2023-03-23T07:11:02;99219.25;;;12.71
27815;BMP280;15190;52.122;9.956;2023-03-23T07:13:28;99229.44;;;12.74
27815;BMP280;15190;52.122;9.956;2023-03-23T07:15:54;99225.28;;;12.76
27815;BMP280;15190;52.122;9.956;2023-03-23T07:18:20;99222.78;;;12.79
27815;BMP280;15190;52.122;9.956;2023-03-23T07:20:51;99228.69;;;12.78
27815;BMP280;15190;52.122;9.956;2023-03-23T07:23:18;99227.13;;;12.83
27815;BMP280;15190;52.122;9.956;2023-03-23T07:25:45;99227.16;;;12.84
27815;BMP280;15190;52.122;9.956;2023-03-23T07:28:14;99214.44;;;12.83
27815;BMP280;15190;52.122;9.956;2023-03-23T07:30:41;99217.84;;;12.83
27815;BMP280;15190;52.122;9.956;2023-03-23T07:33:08;99220.50;;;12.89
27815;BMP280;15190;52.122;9.956;2023-03-23T07:35:35;99230.72;;;12.92
27815;BMP280;15190;52.122;9.956;2023-03-23T07:38:02;99221.53;;;12.98
27815;BMP280;15190;52.122;9.956;2023-03-23T07:40:28;99230.00;;;13.00
27815;BMP280;15190;52.122;9.956;2023-03-23T07:42:56;99230.03;;;13.02
27815;BMP280;15190;52.122;9.956;2023-03-23T07:45:23;99237.75;;;13.08
27815;BMP280;15190;52.122;9.956;2023-03-23T07:47:49;99242.16;;;13.16
27815;BMP280;15190;52.122;9.956;2023-03-23T07:50:15;99234.59;;;13.18
27815;BMP280;15190;52.122;9.956;2023-03-23T07:52:42;99249.88;;;13.21
27815;BMP280;15190;52.122;9.956;2023-03-23T07:55:11;99231.41;;;13.29
27815;BMP280;15190;52.122;9.956;2023-03-23T07:57:44;99237.34;;;13.31
27815;BMP280;15190;52.122;9.956;2023-03-23T08:00:10;99240.84;;;13.36
27815;BMP280;15190;52.122;9.956;2023-03-23T08:02:45;99226.50;;;13.39
27815;BMP280;15190;52.122;9.956;2023-03-23T08:05:12;99234.16;;;13.41
27815;BMP280;15190;52.122;9.956;2023-03-23T08:07:39;99237.47;;;13.37
27815;BMP280;15190;52.122;9.956;2023-03-23T08:10:08;99240.09;;;13.41
27815;BMP280;15190;52.122;9.956;2023-03-23T08:12:38;99235.22;;;13.53
27815;BMP280;15190;52.122;9.956;2023-03-23T08:15:05;99236.22;;;13.63
27815;BMP280;15190;52.122;9.956;2023-03-23T08:17:33;99233.69;;;13.63
27815;BMP280;15190;52.122;9.956;2023-03-23T08:20:00;99232.09;;;13.67
27815;BMP280;15190;52.122;9.956;2023-03-23T08:22:26;99239.72;;;13.67
27815;BMP280;15190;52.122;9.956;2023-03-23T08:24:55;99243.28;;;13.80
27815;BMP280;15190;52.122;9.956;2023-03-23T08:27:21;99239.16;;;13.86
27815;BMP280;15190;52.122;9.956;2023-03-23T08:29:46;99226.44;;;13.86
27815;BMP280;15190;52.122;9.956;2023-03-23T08:32:13;99233.22;;;13.86
27815;BMP280;15190;52.122;9.956;2023-03-23T08:34:40;99229.09;;;13.94
27815;BMP280;15190;52.122;9.956;2023-03-23T08:37:08;99244.38;;;13.95
27815;BMP280;15190;52.122;9.956;2023-03-23T08:39:34;99239.25;;;13.91
27815;BMP280;15190;52.122;9.956;2023-03-23T08:42:00;99242.66;;;13.93
27815;BMP280;15190;52.122;9.956;2023-03-23T08:44:26;99238.34;;;13.89
27815;BMP280;15190;52.122;9.956;2023-03-23T08:46:52;99230.81;;;13.93
27815;BMP280;15190;52.122;9.956;2023-03-23T08:49:23;99242.78;;;14.00
27815;BMP280;15190;52.122;9.956;2023-03-23T08:51:49;99244.53;;;14.03
27815;BMP280;15190;52.122;9.956;2023-03-23T08:54:15;99235.19;;;14.03
27815;BMP280;15190;52.122;9.956;2023-03-23T08:56:43;99231.91;;;14.07
27815;BMP280;15190;52.122;9.956;2023-03-23T08:59:09;99232.81;;;14.12
27815;BMP280;15190;52.122;9.956;2023-03-23T09:01:35;99237.09;;;14.14
27815;BMP280;15190;52.122;9.956;2023-03-23T09:04:01;99237.13;;;14.19
27815;BMP280;15190;52.122;9.956;2023-03-23T09:06:27;99242.22;;;14.19
27815;BMP280;15190;52.122;9.956;2023-03-23T09:08:53;99243.84;;;14.14
27815;BMP280;15190;52.122;9.956;2023-03-23T09:11:21;99239.66;;;14.16
27815;BMP280;15190;52.122;9.956;2023-03-23T09:13:47;99237.13;;;14.19
27815;BMP280;15190;52.122;9.956;2023-03-23T09:16:13;99238.88;;;14.23
27815;BMP280;15190;52.122;9.956;2023-03-23T09:18:40;99243.16;;;14.24
27815;BMP280;15190;52.122;9.956;2023-03-23T09:21:06;99238.00;;;14.19
27815;BMP280;15190;52.122;9.956;2023-03-23T09:23:32;99229.63;;;14.26
27815;BMP280;15190;52.122;9.956;2023-03-23T09:26:00;99236.34;;;14.21
27815;BMP280;15190;52.122;9.956;2023-03-23T09:28:27;99239.78;;;14.26
27815;BMP280;15190;52.122;9.956;2023-03-23T09:30:55;99244.06;;;14.30
27815;BMP280;15190;52.122;9.956;2023-03-23T09:33:23;99258.56;;;14.36
27815;BMP280;15190;52.122;9.956;2023-03-23T09:35:49;99253.38;;;14.28
27815;BMP280;15190;52.122;9.956;2023-03-23T09:38:15;99256.78;;;14.30
27815;BMP280;15190;52.122;9.956;2023-03-23T09:40:44;99263.66;;;14.34
27815;BMP280;15190;52.122;9.956;2023-03-23T09:43:20;99268.72;;;14.36
27815;BMP280;15190;52.122;9.956;2023-03-23T09:46:04;99257.75;;;14.37
27815;BMP280;15190;52.122;9.956;2023-03-23T09:48:46;99272.03;;;14.30
27815;BMP280;15190;52.122;9.956;2023-03-23T09:53:48;99265.34;;;14.35
27815;BMP280;15190;52.122;9.956;2023-03-23T09:56:16;99267.13;;;14.42
27815;BMP280;15190;52.122;9.956;2023-03-23T09:59:12;99272.22;;;14.42
27815;BMP280;15190;52.122;9.956;2023-03-23T10:01:44;99273.97;;;14.46
27815;BMP280;15190;52.122;9.956;2023-03-23T10:04:18;99272.28;;;14.45
27815;BMP280;15190;52.122;9.956;2023-03-23T10:06:47;99267.25;;;14.49
27815;BMP280;15190;52.122;9.956;2023-03-23T10:09:16;99277.41;;;14.49
27815;BMP280;15190;52.122;9.956;2023-03-23T10:11:59;99280.84;;;14.51
27815;BMP280;15190;52.122;9.956;2023-03-23T10:17:18;99285.16;;;14.57
27815;BMP280;15190;52.122;9.956;2023-03-23T10:19:59;99291.97;;;14.58
27815;BMP280;15190;52.122;9.956;2023-03-23T10:22:32;99297.06;;;14.61
27815;BMP280;15190;52.122;9.956;2023-03-23T10:28:10;99298.84;;;14.68
27815;BMP280;15190;52.122;9.956;2023-03-23T10:30:41;99299.75;;;14.68
27815;BMP280;15190;52.122;9.956;2023-03-23T10:33:16;99300.59;;;14.69
27815;BMP280;15190;52.122;9.956;2023-03-23T10:35:56;99296.41;;;14.72
27815;BMP280;15190;52.122;9.956;2023-03-23T10:38:29;99304.94;;;14.77
27815;BMP280;15190;52.122;9.956;2023-03-23T10:41:00;99307.50;;;14.80
27815;BMP280;15190;52.122;9.956;2023-03-23T10:43:27;99296.50;;;14.80
27815;BMP280;15190;52.122;9.956;2023-03-23T10:45:58;99301.59;;;14.81
27815;BMP280;15190;52.122;9.956;2023-03-23T10:48:37;99302.44;;;14.80
27815;BMP280;15190;52.122;9.956;2023-03-23T10:51:10;99316.00;;;14.79
27815;BMP280;15190;52.122;9.956;2023-03-23T10:53:39;99286.25;;;14.77
27815;BMP280;15190;52.122;9.956;2023-03-23T10:56:29;99308.34;;;14.78
27815;BMP280;15190;52.122;9.956;2023-03-23T11:01:43;99312.59;;;14.80
27815;BMP280;15190;52.122;9.956;2023-03-23T11:04:12;99300.84;;;14.88
27815;BMP280;15190;52.122;9.956;2023-03-23T11:06:44;99298.34;;;14.92
27815;BMP280;15190;52.122;9.956;2023-03-23T11:09:14;99292.50;;;14.99
27815;BMP280;15190;52.122;9.956;2023-03-23T11:11:43;99285.97;;;15.18
27815;BMP280;15190;52.122;9.956;2023-03-23T11:14:18;99285.06;;;15.14
27815;BMP280;15190;52.122;9.956;2023-03-23T11:17:05;99285.13;;;15.20
27815;BMP280;15190;52.122;9.956;2023-03-23T11:19:34;99288.63;;;15.31
27815;BMP280;15190;52.122;9.956;2023-03-23T11:22:07;99289.63;;;15.40
27815;BMP280;15190;52.122;9.956;2023-03-23T11:24:35;99297.44;;;15.58
27815;BMP280;15190;52.122;9.956;2023-03-23T11:27:03;99288.13;;;15.63
27815;BMP280;15190;52.122;9.956;2023-03-23T11:29:33;99295.97;;;15.87
27815;BMP280;15190;52.122;9.956;2023-03-23T11:34:31;99298.66;;;16.00
27815;BMP280;15190;52.122;9.956;2023-03-23T11:37:08;99288.50;;;16.03
27815;BMP280;15190;52.122;9.956;2023-03-23T11:39:56;99277.53;;;16.17
27815;BMP280;15190;52.122;9.956;2023-03-23T11:42:37;99281.94;;;16.30
27815;BMP280;15190;52.122;9.956;2023-03-23T11:45:39;99294.72;;;16.41
27815;BMP280;15190;52.122;9.956;2023-03-23T11:48:25;99292.16;;;16.35
27815;BMP280;15190;52.122;9.956;2023-03-23T11:53:53;99290.28;;;16.16
27815;BMP280;15190;52.122;9.956;2023-03-23T11:56:35;99286.00;;;16.13
27815;BMP280;15190;52.122;9.956;2023-03-23T11:59:02;99288.56;;;16.15
27815;BMP280;15190;52.122;9.956;2023-03-23T12:04:42;99284.44;;;16.26
27815;BMP280;15190;52.122;9.956;2023-03-23T12:07:30;99278.56;;;16.34
27815;BMP280;15190;52.122;9.956;2023-03-23T12:10:27;99276.84;;;16.33
27815;BMP280;15190;52.122;9.956;2023-03-23T12:19:01;99275.03;;;16.20
27815;BMP280;15190;52.122;9.956;2023-03-23T12:27:49;99278.28;;;16.02
27815;BMP280;15190;52.122;9.956;2023-03-23T12:32:49;99293.53;;;15.94
27815;BMP280;15190;52.122;9.956;2023-03-23T12:35:45;99298.53;;;15.87
27815;BMP280;15190;52.122;9.956;2023-03-23T12:41:02;99308.69;;;15.82
27815;BMP280;15190;52.122;9.956;2023-03-23T12:43:51;99308.75;;;15.90
27815;BMP280;15190;52.122;9.956;2023-03-23T12:46:24;99301.13;;;15.90
27815;BMP280;15190;52.122;9.956;2023-03-23T12:49:48;99311.28;;;15.85
27815;BMP280;15190;52.122;9.956;2023-03-23T12:54:49;99304.38;;;15.75
27815;BMP280;15190;52.122;9.956;2023-03-23T12:57:23;99312.88;;;15.74
27815;BMP280;15190;52.122;9.956;2023-03-23T13:00:32;99311.91;;;15.65
27815;BMP280;15190;52.122;9.956;2023-03-23T13:03:09;99326.31;;;15.59
27815;BMP280;15190;52.122;9.956;2023-03-23T13:05:48;99334.81;;;15.61
27815;BMP280;15190;52.122;9.956;2023-03-23T13:09:28;99351.78;;;15.57
27815;BMP280;15190;52.122;9.956;2023-03-23T13:11:45;99369.66;;;15.60
27815;BMP280;15190;52.122;9.956;2023-03-23T13:22:18;99389.72;;;15.33
27815;BMP280;15190;52.122;9.956;2023-03-23T13:24:52;99377.72;;;15.26
27815;BMP280;15190;52.122;9.956;2023-03-23T13:27:23;99368.31;;;15.21
27815;BMP280;15190;52.122;9.956;2023-03-23T13:29:49;99360.72;;;15.25
27815;BMP280;15190;52.122;9.956;2023-03-23T13:32:17;99383.66;;;15.27
27815;BMP280;15190;52.122;9.956;2023-03-23T13:34:46;99385.09;;;15.09
27815;BMP280;15190;52.122;9.956;2023-03-23T13:42:49;99376.91;;;14.69
27815;BMP280;15190;52.122;9.956;2023-03-23T13:50:53;99397.06;;;14.57
27815;BMP280;15190;52.122;9.956;2023-03-23T13:53:30;99393.47;;;14.44
27815;BMP280;15190;52.122;9.956;2023-03-23T13:58:31;99390.03;;;14.40
27815;BMP280;15190;52.122;9.956;2023-03-23T14:01:13;99394.75;;;14.19
27815;BMP280;15190;52.122;9.956;2023-03-23T14:03:45;99404.00;;;14.15
27815;BMP280;15190;52.122;9.956;2023-03-23T14:06:22;99401.38;;;14.09
27815;BMP280;15190;52.122;9.956;2023-03-23T14:08:54;99402.94;;;14.03
27815;BMP280;15190;52.122;9.956;2023-03-23T14:11:27;99407.06;;;13.98
27815;BMP280;15190;52.122;9.956;2023-03-23T14:14:03;99408.38;;;13.77
27815;BMP280;15190;52.122;9.956;2023-03-23T14:16:44;99415.25;;;13.82
27815;BMP280;15190;52.122;9.956;2023-03-23T14:19:18;99415.09;;;13.75
27815;BMP280;15190;52.122;9.956;2023-03-23T14:21:58;99408.38;;;13.77
27815;BMP280;15190;52.122;9.956;2023-03-23T14:24:29;99413.63;;;13.86
27815;BMP280;15190;52.122;9.956;2023-03-23T14:27:10;99415.19;;;13.79
27815;BMP280;15190;52.122;9.956;2023-03-23T14:29:36;99415.09;;;13.75
27815;BMP280;15190;52.122;9.956;2023-03-23T14:32:05;99407.59;;;13.81
27815;BMP280;15190;52.122;9.956;2023-03-23T14:34:32;99413.41;;;13.75
27815;BMP280;15190;52.122;9.956;2023-03-23T14:36:59;99411.72;;;13.76
27815;BMP280;15190;52.122;9.956;2023-03-23T14:39:28;99412.41;;;13.66
27815;BMP280;15190;52.122;9.956;2023-03-23T14:41:56;99426.75;;;13.64
27815;BMP280;15190;52.122;9.956;2023-03-23T14:44:30;99429.16;;;13.58
27815;BMP280;15190;52.122;9.956;2023-03-23T14:47:00;99423.22;;;13.58
27815;BMP280;15190;52.122;9.956;2023-03-23T14:49:40;99414.59;;;13.50
27815;BMP280;15190;52.122;9.956;2023-03-23T14:52:17;99418.78;;;13.46
27815;BMP280;15190;52.122;9.956;2023-03-23T14:54:44;99425.63;;;13.50
27815;BMP280;15190;52.122;9.956;2023-03-23T14:57:45;99434.19;;;13.55
27815;BMP280;15190;52.122;9.956;2023-03-23T15:00:04;99433.31;;;13.55
27815;BMP280;15190;52.122;9.956;2023-03-23T15:02:33;99427.44;;;13.57
27815;BMP280;15190;52.122;9.956;2023-03-23T15:05:11;99424.91;;;13.57
27815;BMP280;15190;52.122;9.956;2023-03-23T15:07:45;99435.22;;;13.65
27815;BMP280;15190;52.122;9.956;2023-03-23T15:10:17;99427.72;;;13.70
27815;BMP280;15190;52.122;9.956;2023-03-23T15:12:46;99422.63;;;13.70
27815;BMP280;15190;52.122;9.956;2023-03-23T15:15:27;99436.09;;;13.66
27815;BMP280;15190;52.122;9.956;2023-03-23T15:17:54;99432.69;;;13.65
27815;BMP280;15190;52.122;9.956;2023-03-23T15:20:26;99435.25;;;13.66
27815;BMP280;15190;52.122;9.956;2023-03-23T15:22:53;99435.28;;;13.69
27815;BMP280;15190;52.122;9.956;2023-03-23T15:25:24;99440.38;;;13.69
27815;BMP280;15190;52.122;9.956;2023-03-23T15:28:07;99424.28;;;13.68
27815;BMP280;15190;52.122;9.956;2023-03-23T15:30:36;99423.31;;;13.62
27815;BMP280;15190;52.122;9.956;2023-03-23T15:33:09;99419.91;;;13.60
27815;BMP280;15190;52.122;9.956;2023-03-23T15:35:38;99430.06;;;13.60
27815;BMP280;15190;52.122;9.956;2023-03-23T15:38:06;99440.22;;;13.60
27815;BMP280;15190;52.122;9.956;2023-03-23T15:40:35;99433.44;;;13.61
27815;BMP280;15190;52.122;9.956;2023-03-23T15:43:15;99435.88;;;13.56
27815;BMP280;15190;52.122;9.956;2023-03-23T15:46:02;99432.50;;;13.56
27815;BMP280;15190;52.122;9.956;2023-03-23T15:48:45;99437.56;;;13.56
27815;BMP280;15190;52.122;9.956;2023-03-23T15:51:11;99425.69;;;13.55
27815;BMP280;15190;52.122;9.956;2023-03-23T15:53:39;99436.72;;;13.55